Harrisburg, PA (17140)

6:04 PM EDT on September 02, 2015 (GMT -0400)
Lawnton | | Change Station
CLOSE
Current Station
Personal Weather Station
Location: Harrisburg, PA
Elevation: 525 ft
Nearby Weather Stations

Elev 525 ft 40.27 °N, 76.80 °W | Updated 57 seconds ago

Clear
Clear
88.2 °F
Feels Like 90 °F
N
0.0
Wind Variable Wind from WNW
Gusts 0.0 mph

Today
High -- | Low -- °F
--% Chance of Precip.
Yesterday
High -- | Low -- °F
Precip. -- in
6:35 AM 7:37 PM
Waning Gibbous, 77% visible
Pressure 29.93 in
Visibility 9.0 miles
Clouds Scattered Clouds 6000 ft
Scattered Clouds 25000 ft
Heat Index 90 °F
Dew Point 64 °F
Humidity 45%
Rainfall 0.00 in
Snow Depth Not available.
UV 1 out of 12
Pollen 9.90 out of 12
Air Quality Not available.
Flu Activity Not available.
METAR KMDT 022156Z 28003KT 9SM SCT060 SCT250 32/20 A2993 RMK AO2 SLP133 T03170200
Pressure 29.93 in
Visibility 9.0 miles
Clouds Scattered Clouds 6000 ft
Scattered Clouds 25000 ft
Heat Index 90 °F
Dew Point 64 °F
Humidity 45%
Rainfall 0.00 in
Snow Depth Not available.
UV 1 out of 12
Pollen 9.90 out of 12
Air Quality Not available.
Flu Activity Not available.
METAR KMDT 022156Z 28003KT 9SM SCT060 SCT250 32/20 A2993 RMK AO2 SLP133 T03170200

10-Day Weather Forecast

×

Almanac

Astronomy

Sep. 02, 2015 Rise Set
Actual Time
Civil Twilight
Nautical Twilight
Astronomical Twilight
Moon
Length of Visible Light
Length of Day
Tomorrow will be .
, % of the Moon is Illuminated

Today's Extremes

State Highs State Lows

Community

WunderPhotos

Upload Photos

1,851,821 photos uploaded!

WunderBlogs® & News

Nearby

Air Quality

  Air Quality AQ Index Pollutant
Not available.

Snow Depth

Station Depth Elevation

Earthquake Activity

City Distance Mag. Time & Date
Minimum magnitude displayed is 2.5.

Coastal Water Temperatures

Place Temperature

Stations

Nearby Weather Stations

Station Location Temp. Windchill Dew Point Humidity Wind Precip. Elev Updated Type